createdAt,value
2022-12-16T00:00:49.157Z,-0.9
2022-12-16T00:01:56.530Z,-1
2022-12-16T00:03:03.556Z,-0.9
2022-12-16T00:04:10.350Z,-0.9
2022-12-16T00:05:17.558Z,-1
2022-12-16T00:06:24.748Z,-0.9
2022-12-16T00:07:31.890Z,-0.9
2022-12-16T00:08:39.028Z,-0.8
2022-12-16T00:09:46.138Z,-0.8
2022-12-16T00:10:53.265Z,-0.8
2022-12-16T00:12:00.524Z,-0.8
2022-12-16T00:13:10.572Z,-0.8
2022-12-16T00:14:14.666Z,-0.8
2022-12-16T00:15:21.703Z,-0.8
2022-12-16T00:16:28.952Z,-0.7
2022-12-16T00:17:35.989Z,-0.8
2022-12-16T00:18:43.158Z,-0.9
2022-12-16T00:19:50.276Z,-0.9
2022-12-16T00:20:57.535Z,-0.9
2022-12-16T00:22:04.583Z,-0.9
2022-12-16T00:23:11.825Z,-1
2022-12-16T00:24:18.716Z,-0.9
2022-12-16T00:25:25.930Z,-0.9
2022-12-16T00:26:32.991Z,-0.8
2022-12-16T00:27:40.233Z,-0.7
2022-12-16T00:28:47.286Z,-0.8
2022-12-16T00:29:54.457Z,-0.8
2022-12-16T00:31:01.629Z,-0.9
2022-12-16T00:32:08.710Z,-1
2022-12-16T00:33:15.838Z,-0.9
2022-12-16T00:34:22.929Z,-0.8
2022-12-16T00:35:29.958Z,-0.8
2022-12-16T00:36:37.118Z,-0.8
2022-12-16T00:37:44.252Z,-0.8
2022-12-16T00:38:51.454Z,-0.8
2022-12-16T00:39:58.645Z,-0.9
2022-12-16T00:41:05.798Z,-0.8
2022-12-16T00:42:12.743Z,-0.8
2022-12-16T00:43:19.942Z,-0.8
2022-12-16T00:44:26.962Z,-0.8
2022-12-16T00:45:34.136Z,-0.9
2022-12-16T00:46:41.328Z,-0.8
2022-12-16T00:47:48.494Z,-0.8
2022-12-16T00:48:55.551Z,-0.7
2022-12-16T00:50:02.758Z,-0.8
2022-12-16T00:51:10.435Z,-0.7
2022-12-16T00:52:17.504Z,-0.8
2022-12-16T00:53:24.770Z,-0.8
2022-12-16T00:54:31.749Z,-0.9
2022-12-16T00:55:38.923Z,-0.9
2022-12-16T00:56:46.036Z,-0.9
2022-12-16T00:57:53.194Z,-0.9
2022-12-16T00:59:00.378Z,-0.9
2022-12-16T01:00:07.739Z,-0.9
2022-12-16T01:01:15.115Z,-0.9
2022-12-16T01:02:22.271Z,-0.9
2022-12-16T01:03:29.313Z,-1
2022-12-16T01:04:36.465Z,-0.9
2022-12-16T01:05:43.581Z,-0.9
2022-12-16T01:06:50.959Z,-0.8
2022-12-16T01:07:57.900Z,-0.8
2022-12-16T01:09:05.230Z,-0.8
2022-12-16T01:10:12.575Z,-0.9
2022-12-16T01:11:19.774Z,-1.1
2022-12-16T01:12:26.882Z,-1
2022-12-16T01:13:34.637Z,-1
2022-12-16T01:14:41.193Z,-1
2022-12-16T01:15:48.376Z,-1.1
2022-12-16T01:16:55.525Z,-1.1
2022-12-16T01:18:02.661Z,-1.1
2022-12-16T01:19:09.822Z,-1.1
2022-12-16T01:20:16.822Z,-1.1
2022-12-16T01:21:24.011Z,-1.1
2022-12-16T01:22:31.187Z,-1
2022-12-16T01:23:38.281Z,-1
2022-12-16T01:24:45.421Z,-1
2022-12-16T01:25:52.698Z,-1
2022-12-16T01:26:59.753Z,-1
2022-12-16T01:28:06.840Z,-0.9
2022-12-16T01:29:13.921Z,-0.9
2022-12-16T01:30:21.120Z,-1.1
2022-12-16T01:31:28.301Z,-1
2022-12-16T01:32:35.621Z,-1
2022-12-16T01:33:42.567Z,-1.1
2022-12-16T01:34:52.457Z,-1
2022-12-16T01:35:56.724Z,-1.1
2022-12-16T01:37:03.874Z,-1.2
2022-12-16T01:38:11.158Z,-1.3
2022-12-16T01:39:18.230Z,-1.2
2022-12-16T01:40:25.262Z,-1.1
2022-12-16T01:41:32.370Z,-1.1
2022-12-16T01:42:39.557Z,-1.1
2022-12-16T01:43:46.927Z,-1
2022-12-16T01:44:54.961Z,-1
2022-12-16T01:46:00.999Z,-1.1
2022-12-16T01:47:15.635Z,-1
2022-12-16T01:48:22.812Z,-1
2022-12-16T01:49:35.004Z,-1
2022-12-16T01:50:43.155Z,-1
2022-12-16T01:51:52.528Z,-1
2022-12-16T01:52:57.501Z,-1
2022-12-16T01:54:04.662Z,-1
2022-12-16T01:55:11.887Z,-1
2022-12-16T01:56:18.770Z,-1
2022-12-16T01:57:25.945Z,-1
2022-12-16T01:58:36.378Z,-1
2022-12-16T01:59:43.358Z,-0.9
2022-12-16T02:00:50.464Z,-0.9
2022-12-16T02:01:58.070Z,-0.9
2022-12-16T02:03:04.813Z,-1
2022-12-16T02:04:11.686Z,-1
2022-12-16T02:05:19.122Z,-1
2022-12-16T02:06:26.236Z,-1
2022-12-16T02:07:33.122Z,-1
2022-12-16T02:08:40.195Z,-1
2022-12-16T02:09:47.363Z,-1
2022-12-16T02:10:55.546Z,-1.1
2022-12-16T02:12:10.834Z,-1.1
2022-12-16T02:13:22.902Z,-1.1
2022-12-16T02:14:35.246Z,-1
2022-12-16T02:15:49.911Z,-1
2022-12-16T02:17:07.492Z,-1.1
2022-12-16T02:18:19.398Z,-1.1
2022-12-16T02:19:26.702Z,-1.1
2022-12-16T02:20:41.812Z,-1
2022-12-16T02:21:54.130Z,-1
2022-12-16T02:23:11.483Z,-1
2022-12-16T02:24:21.815Z,-1
2022-12-16T02:25:34.202Z,-1
2022-12-16T02:26:44.430Z,-1
2022-12-16T02:27:56.664Z,-1.1
2022-12-16T02:29:06.362Z,-1.2
2022-12-16T02:30:23.609Z,-1.1
2022-12-16T02:31:38.854Z,-1
2022-12-16T02:32:49.054Z,-1.2
2022-12-16T02:34:06.402Z,-1.2
2022-12-16T02:35:13.471Z,-1.1
2022-12-16T02:36:30.803Z,-1.3
2022-12-16T02:37:48.279Z,-1.2
2022-12-16T02:39:02.894Z,-1.2
2022-12-16T02:40:14.986Z,-1.1
2022-12-16T02:41:24.708Z,-1.1
2022-12-16T02:42:42.007Z,-1.1
2022-12-16T02:43:49.278Z,-1.1
2022-12-16T02:45:01.872Z,-1.1
2022-12-16T02:46:14.595Z,-1.1
2022-12-16T02:47:21.686Z,-1.1
2022-12-16T02:48:28.850Z,-1.1
2022-12-16T02:49:36.118Z,-1.1
2022-12-16T02:50:48.599Z,-1.1
2022-12-16T02:51:55.937Z,-1.1
2022-12-16T02:53:03.097Z,-1.2
2022-12-16T02:54:10.103Z,-1.2
2022-12-16T02:55:17.153Z,-1.1
2022-12-16T02:56:24.294Z,-1.1
2022-12-16T02:57:36.735Z,-1.1
2022-12-16T02:58:48.749Z,-1.2
2022-12-16T03:00:00.953Z,-1.2
2022-12-16T03:01:11.324Z,-1.2
2022-12-16T03:02:23.991Z,-1.2
2022-12-16T03:03:36.494Z,-1.1
2022-12-16T03:04:51.273Z,-1.2
2022-12-16T03:06:03.663Z,-1.1
2022-12-16T03:07:10.645Z,-1.2
2022-12-16T03:08:17.653Z,-1.3
2022-12-16T03:09:27.770Z,-1.3
2022-12-16T03:10:34.930Z,-1.2
2022-12-16T03:11:42.110Z,-1.4
2022-12-16T03:12:49.553Z,-1.3
2022-12-16T03:13:56.553Z,-1.3
2022-12-16T03:15:03.533Z,-1.3
2022-12-16T03:16:10.743Z,-1.3
2022-12-16T03:17:17.669Z,-1.3
2022-12-16T03:18:24.877Z,-1.2
2022-12-16T03:19:32.119Z,-1.3
2022-12-16T03:20:39.161Z,-1.2
2022-12-16T03:21:49.363Z,-1.2
2022-12-16T03:23:04.714Z,-1.3
2022-12-16T03:24:14.222Z,-1.3
2022-12-16T03:25:21.401Z,-1.2
2022-12-16T03:26:28.681Z,-1.4
2022-12-16T03:27:43.709Z,-1.5
2022-12-16T03:29:01.523Z,-1.3
2022-12-16T03:30:08.705Z,-1.4
2022-12-16T03:31:20.952Z,-1.3
2022-12-16T03:32:28.059Z,-1.3
2022-12-16T03:33:40.277Z,-1.2
2022-12-16T03:34:58.021Z,-1.2
2022-12-16T03:36:05.297Z,-1.1
2022-12-16T03:37:12.253Z,-1.1
2022-12-16T03:38:19.641Z,-1
2022-12-16T03:39:26.578Z,-1.2
2022-12-16T03:40:33.691Z,-1.4
2022-12-16T03:41:40.758Z,-1.3
2022-12-16T03:42:47.909Z,-1.3
2022-12-16T03:43:55.030Z,-1.3
2022-12-16T03:45:02.342Z,-1.3
2022-12-16T03:46:09.910Z,-1.3
2022-12-16T03:47:21.639Z,-1.4
2022-12-16T03:48:23.981Z,-1.3
2022-12-16T03:49:31.201Z,-1.2
2022-12-16T03:50:38.476Z,-1.3
2022-12-16T03:51:45.507Z,-1.2
2022-12-16T03:52:52.589Z,-1.1
2022-12-16T03:53:59.710Z,-1.1
2022-12-16T03:55:06.981Z,-1.1
2022-12-16T03:56:13.949Z,-1.2
2022-12-16T03:57:21.097Z,-1.1
2022-12-16T03:58:28.371Z,-1.1
2022-12-16T03:59:35.449Z,-1.1
2022-12-16T04:00:42.533Z,-1.1
2022-12-16T04:01:50.688Z,-1.1
2022-12-16T04:02:58.051Z,-1.2
2022-12-16T04:04:05.118Z,-1.2
2022-12-16T04:05:12.121Z,-1.2
2022-12-16T04:06:19.189Z,-1.1
2022-12-16T04:07:26.349Z,-1
2022-12-16T04:08:33.461Z,-1
2022-12-16T04:09:40.621Z,-1
2022-12-16T04:10:47.779Z,-1.1
2022-12-16T04:11:59.937Z,-1.2
2022-12-16T04:13:12.238Z,-1.3
2022-12-16T04:14:24.385Z,-1.2
2022-12-16T04:15:36.817Z,-1.2
2022-12-16T04:16:48.841Z,-1.2
2022-12-16T04:18:01.005Z,-1.3
2022-12-16T04:19:16.245Z,-1.2
2022-12-16T04:20:31.069Z,-1.1
2022-12-16T04:21:43.283Z,-1.1
2022-12-16T04:22:55.492Z,-1.1
2022-12-16T04:24:07.818Z,-1.1
2022-12-16T04:25:19.936Z,-1.1
2022-12-16T04:26:26.988Z,-1.1
2022-12-16T04:27:35.003Z,-1.1
2022-12-16T04:28:41.840Z,-1.1
2022-12-16T04:29:49.082Z,-1.1
2022-12-16T04:31:01.269Z,-1.2
2022-12-16T04:32:08.388Z,-1.1
2022-12-16T04:33:15.505Z,-1.1
2022-12-16T04:34:27.783Z,-1
2022-12-16T04:35:34.896Z,-1
2022-12-16T04:36:46.989Z,-0.9
2022-12-16T04:37:59.157Z,-1
2022-12-16T04:39:11.471Z,-1
2022-12-16T04:40:23.549Z,-1.1
2022-12-16T04:41:35.964Z,-1.1
2022-12-16T04:42:48.119Z,-1.2
2022-12-16T04:44:00.312Z,-1
2022-12-16T04:45:13.360Z,-1
2022-12-16T04:46:26.627Z,-0.9
2022-12-16T04:47:39.060Z,-0.9
2022-12-16T04:48:51.461Z,-0.9
2022-12-16T04:50:03.821Z,-0.8
2022-12-16T04:51:16.118Z,-0.8
2022-12-16T04:52:28.835Z,-0.9
2022-12-16T04:53:41.085Z,-1
2022-12-16T04:54:53.603Z,-1
2022-12-16T04:56:06.060Z,-0.9
2022-12-16T04:57:18.232Z,-1
2022-12-16T04:58:30.426Z,-1
2022-12-16T04:59:42.698Z,-1
2022-12-16T05:00:55.023Z,-1
2022-12-16T05:02:07.353Z,-1.1
2022-12-16T05:03:19.460Z,-1.1
2022-12-16T05:04:31.488Z,-1.1
2022-12-16T05:05:44.045Z,-1
2022-12-16T05:06:56.606Z,-1
2022-12-16T05:08:08.848Z,-1
2022-12-16T05:09:20.945Z,-1
2022-12-16T05:10:33.925Z,-1
2022-12-16T05:11:45.916Z,-1
2022-12-16T05:12:58.272Z,-0.9
2022-12-16T05:14:10.435Z,-0.9
2022-12-16T05:15:22.509Z,-0.8
2022-12-16T05:16:34.753Z,-0.8
2022-12-16T05:17:47.018Z,-0.8
2022-12-16T05:18:59.817Z,-0.8
2022-12-16T05:20:12.002Z,-0.8
2022-12-16T05:21:24.086Z,-0.8
2022-12-16T05:22:36.334Z,-0.9
2022-12-16T05:23:48.652Z,-0.9
2022-12-16T05:25:00.871Z,-0.9
2022-12-16T05:26:13.143Z,-0.9
2022-12-16T05:27:25.175Z,-0.9
2022-12-16T05:28:37.394Z,-0.9
2022-12-16T05:29:49.610Z,-1.1
2022-12-16T05:31:02.073Z,-1.1
2022-12-16T05:32:14.050Z,-1
2022-12-16T05:33:26.234Z,-1
2022-12-16T05:34:38.382Z,-0.9
2022-12-16T05:35:50.634Z,-0.9
2022-12-16T05:37:02.908Z,-0.8
2022-12-16T05:38:15.291Z,-0.8
2022-12-16T05:39:27.849Z,-0.9
2022-12-16T05:40:40.272Z,-1
2022-12-16T05:41:52.258Z,-0.9
2022-12-16T05:43:04.505Z,-1.1
2022-12-16T05:44:16.702Z,-1.2
2022-12-16T05:45:28.899Z,-1.1
2022-12-16T05:46:41.223Z,-1.1
2022-12-16T05:47:53.358Z,-1.2
2022-12-16T05:49:06.555Z,-1.2
2022-12-16T05:50:18.954Z,-1.2
2022-12-16T05:51:31.174Z,-1.1
2022-12-16T05:52:43.213Z,-1.1
2022-12-16T05:53:55.490Z,-1.1
2022-12-16T05:55:07.726Z,-1.1
2022-12-16T05:56:20.022Z,-1.1
2022-12-16T05:57:32.126Z,-1.1
2022-12-16T05:58:44.338Z,-1.1
2022-12-16T05:59:56.679Z,-1
2022-12-16T06:01:09.306Z,-1
2022-12-16T06:02:22.345Z,-1
2022-12-16T06:03:34.502Z,-1.1
2022-12-16T06:04:46.510Z,-1
2022-12-16T06:05:58.701Z,-1.1
2022-12-16T06:07:10.998Z,-1.1
2022-12-16T06:08:23.234Z,-1.1
2022-12-16T06:09:35.262Z,-1.1
2022-12-16T06:10:47.522Z,-1.1
2022-12-16T06:11:59.791Z,-1
2022-12-16T06:13:12.046Z,-1.1
2022-12-16T06:14:24.262Z,-1.3
2022-12-16T06:15:36.446Z,-1.2
2022-12-16T06:16:48.716Z,-1.3
2022-12-16T06:18:00.858Z,-1.2
2022-12-16T06:19:13.123Z,-1.3
2022-12-16T06:20:25.257Z,-1.2
2022-12-16T06:21:37.650Z,-1.3
2022-12-16T06:22:49.746Z,-1.2
2022-12-16T06:24:01.942Z,-1.2
2022-12-16T06:25:14.066Z,-1.1
2022-12-16T06:26:26.379Z,-1.2
2022-12-16T06:27:38.919Z,-1.2
2022-12-16T06:28:53.846Z,-1.2
2022-12-16T06:30:06.089Z,-1.2
2022-12-16T06:31:18.306Z,-1.3
2022-12-16T06:32:30.662Z,-1.2
2022-12-16T06:33:42.746Z,-1.2
2022-12-16T06:34:55.002Z,-1.2
2022-12-16T06:36:07.193Z,-1.1
2022-12-16T06:37:19.325Z,-1.4
2022-12-16T06:38:31.633Z,-1.3
2022-12-16T06:39:45.740Z,-1.2
2022-12-16T06:40:56.052Z,-1.4
2022-12-16T06:42:08.344Z,-1.3
2022-12-16T06:43:20.426Z,-1.3
2022-12-16T06:44:32.670Z,-1.2
2022-12-16T06:45:43.415Z,-1.2
2022-12-16T06:46:55.606Z,-1.2
2022-12-16T06:48:07.854Z,-1.2
2022-12-16T06:49:20.206Z,-1.2
2022-12-16T06:50:32.395Z,-1.1
2022-12-16T06:51:44.530Z,-1.1
2022-12-16T06:52:56.785Z,-1.1
2022-12-16T06:54:08.930Z,-1.1
2022-12-16T06:55:21.089Z,-1.2
2022-12-16T06:56:33.374Z,-1
2022-12-16T06:57:45.675Z,-0.8
2022-12-16T06:59:00.442Z,-0.8
2022-12-16T07:00:12.600Z,-0.8
2022-12-16T07:01:25.061Z,-0.8
2022-12-16T07:02:37.529Z,-0.8
2022-12-16T07:03:49.938Z,-0.9
2022-12-16T07:05:02.403Z,-0.9
2022-12-16T07:06:14.581Z,-0.9
2022-12-16T07:07:26.822Z,-1
2022-12-16T07:08:39.062Z,-0.9
2022-12-16T07:09:51.266Z,-1
2022-12-16T07:11:15.527Z,-1.1
2022-12-16T07:12:15.670Z,-1.2
2022-12-16T07:13:27.928Z,-1.1
2022-12-16T07:14:40.170Z,-1.1
2022-12-16T07:15:52.466Z,-1
2022-12-16T07:17:04.533Z,-1.2
2022-12-16T07:18:16.669Z,-1.2
2022-12-16T07:19:28.968Z,-1.2
2022-12-16T07:20:41.231Z,-1.2
2022-12-16T07:21:53.634Z,-1.2
2022-12-16T07:23:12.065Z,-1.3
2022-12-16T07:24:18.293Z,-1.3
2022-12-16T07:25:30.508Z,-1.2
2022-12-16T07:26:43.683Z,-1.2
2022-12-16T07:27:56.062Z,-1.2
2022-12-16T07:29:08.209Z,-1.2
2022-12-16T07:30:20.334Z,-1.2
2022-12-16T07:31:32.988Z,-1.2
2022-12-16T07:32:45.343Z,-1.2
2022-12-16T07:33:57.542Z,-1.2
2022-12-16T07:35:09.958Z,-1.3
2022-12-16T07:36:22.461Z,-1.2
2022-12-16T07:37:34.657Z,-1.3
2022-12-16T07:38:46.817Z,-1.2
2022-12-16T07:39:59.278Z,-1.2
2022-12-16T07:41:11.868Z,-1.1
2022-12-16T07:42:23.994Z,-1
2022-12-16T07:43:37.513Z,-1
2022-12-16T07:44:44.530Z,-1
2022-12-16T07:45:57.379Z,-1
2022-12-16T07:47:10.058Z,-1
2022-12-16T07:48:22.571Z,-1
2022-12-16T07:49:34.722Z,-1
2022-12-16T07:50:46.962Z,-1
2022-12-16T07:51:59.435Z,-1
2022-12-16T07:53:11.510Z,-1
2022-12-16T07:54:24.454Z,-1
2022-12-16T07:55:36.802Z,-1
2022-12-16T07:56:49.052Z,-1
2022-12-16T07:58:01.241Z,-0.9
2022-12-16T07:59:13.557Z,-0.9
2022-12-16T08:00:25.718Z,-0.9
2022-12-16T08:01:38.009Z,-0.9
2022-12-16T08:02:50.325Z,-0.9
2022-12-16T08:04:02.394Z,-0.9
2022-12-16T08:05:14.717Z,-0.9
2022-12-16T08:06:26.785Z,-0.9
2022-12-16T08:07:39.013Z,-0.9
2022-12-16T08:08:51.194Z,-0.9
2022-12-16T08:10:03.511Z,-0.9
2022-12-16T08:11:15.614Z,-0.9
2022-12-16T08:12:27.915Z,-0.9
2022-12-16T08:13:40.481Z,-0.9
2022-12-16T08:14:52.310Z,-0.9
2022-12-16T08:16:04.598Z,-1.1
2022-12-16T08:17:16.786Z,-1
2022-12-16T08:18:29.039Z,-0.9
2022-12-16T08:19:41.414Z,-0.9
2022-12-16T08:20:53.446Z,-0.9
2022-12-16T08:22:05.699Z,-0.9
2022-12-16T08:23:18.521Z,-1
2022-12-16T08:24:30.553Z,-0.9
2022-12-16T08:25:42.886Z,-0.9
2022-12-16T08:26:55.119Z,-0.9
2022-12-16T08:28:07.226Z,-0.9
2022-12-16T08:30:31.706Z,-1
2022-12-16T08:31:44.114Z,-1
2022-12-16T08:32:59.697Z,-0.9
2022-12-16T08:34:08.369Z,-0.8
2022-12-16T08:35:20.546Z,-0.8
2022-12-16T08:36:27.698Z,-0.7
2022-12-16T08:37:39.889Z,-0.7
2022-12-16T08:38:52.269Z,-0.7
2022-12-16T08:40:33.511Z,-0.7
2022-12-16T08:41:17.101Z,-0.7
2022-12-16T08:42:29.298Z,-0.7
2022-12-16T08:43:41.510Z,-0.8
2022-12-16T08:44:53.874Z,-0.8
2022-12-16T08:46:06.082Z,-0.8
2022-12-16T08:47:19.087Z,-0.8
2022-12-16T08:48:31.367Z,-0.7
2022-12-16T08:49:43.679Z,-0.7
2022-12-16T08:50:56.039Z,-0.8
2022-12-16T08:52:08.170Z,-0.8
2022-12-16T08:53:20.265Z,-0.9
2022-12-16T08:54:32.550Z,-0.8
2022-12-16T08:55:44.726Z,-0.8
2022-12-16T08:56:56.991Z,-0.9
2022-12-16T08:58:09.282Z,-0.8
2022-12-16T08:59:21.389Z,-1
2022-12-16T09:00:33.625Z,-1.1
2022-12-16T09:01:45.975Z,-1.2
2022-12-16T09:02:58.266Z,-1.1
2022-12-16T09:04:10.361Z,-1
2022-12-16T09:05:22.434Z,-0.9
2022-12-16T09:06:40.051Z,-1
2022-12-16T09:07:46.923Z,-1
2022-12-16T09:09:04.550Z,-1
2022-12-16T09:10:16.858Z,-1.2
2022-12-16T09:11:29.122Z,-1.4
2022-12-16T09:12:41.318Z,-1.2
2022-12-16T09:13:53.657Z,-1.1
2022-12-16T09:15:05.971Z,-1.1
2022-12-16T09:16:19.702Z,-1
2022-12-16T09:17:30.733Z,-1.2
2022-12-16T09:18:42.965Z,-1.3
2022-12-16T09:19:55.553Z,-1.2
2022-12-16T09:21:07.974Z,-1.2
2022-12-16T09:22:20.101Z,-1.1
2022-12-16T09:23:32.662Z,-1.2
2022-12-16T09:24:44.554Z,-1.2
2022-12-16T09:25:56.943Z,-1.1
2022-12-16T09:27:09.274Z,-1
2022-12-16T09:28:21.751Z,-1
2022-12-16T09:29:33.993Z,-1.1
2022-12-16T09:30:46.255Z,-1
2022-12-16T09:31:58.400Z,-0.9
2022-12-16T09:33:10.802Z,-0.9
2022-12-16T09:34:23.062Z,-0.9
2022-12-16T09:35:35.063Z,-0.9
2022-12-16T09:36:47.294Z,-0.9
2022-12-16T09:37:59.529Z,-1
2022-12-16T09:39:11.877Z,-0.9
2022-12-16T09:40:24.590Z,-0.8
2022-12-16T09:41:41.191Z,-1
2022-12-16T09:42:48.920Z,-1
2022-12-16T09:44:01.172Z,-1
2022-12-16T09:45:19.459Z,-1
2022-12-16T09:46:36.787Z,-1.1
2022-12-16T09:47:54.027Z,-1
2022-12-16T09:49:12.030Z,-0.9
2022-12-16T09:50:29.650Z,-0.9
2022-12-16T09:51:41.778Z,-0.9
2022-12-16T09:52:54.070Z,-0.9
2022-12-16T09:54:06.493Z,-0.9
2022-12-16T09:55:19.029Z,-1
2022-12-16T09:56:34.171Z,-1.1
2022-12-16T09:57:49.851Z,-1.3
2022-12-16T09:58:59.590Z,-1.3
2022-12-16T10:00:14.884Z,-1.3
2022-12-16T10:01:27.173Z,-1.2
2022-12-16T10:02:39.548Z,-1.1
2022-12-16T10:03:51.555Z,-1
2022-12-16T10:05:03.996Z,-0.9
2022-12-16T10:06:16.241Z,-0.9
2022-12-16T10:07:34.292Z,-1
2022-12-16T10:08:46.521Z,-0.9
2022-12-16T10:10:03.804Z,-0.9
2022-12-16T10:11:21.115Z,-0.9
2022-12-16T10:12:39.359Z,-0.9
2022-12-16T10:13:59.660Z,-0.9
2022-12-16T10:15:17.070Z,-0.9
2022-12-16T10:16:34.466Z,-0.9
2022-12-16T10:17:51.681Z,-1.1
2022-12-16T10:19:03.963Z,-1
2022-12-16T10:20:24.215Z,-1.1
2022-12-16T10:21:46.593Z,-1
2022-12-16T10:23:01.425Z,-0.9
2022-12-16T10:24:16.582Z,-0.9
2022-12-16T10:25:39.000Z,-0.9
2022-12-16T10:26:57.370Z,-1
2022-12-16T10:28:17.662Z,-1
2022-12-16T10:29:39.976Z,-1.1
2022-12-16T10:30:52.239Z,-1
2022-12-16T10:32:04.486Z,-0.9
2022-12-16T10:33:22.728Z,-0.9
2022-12-16T10:34:34.938Z,-1
2022-12-16T10:35:47.169Z,-0.9
2022-12-16T10:36:59.637Z,-0.9
2022-12-16T10:38:12.260Z,-1.1
2022-12-16T10:39:33.201Z,-1.1
2022-12-16T10:40:45.773Z,-1.1
2022-12-16T10:41:57.917Z,-1.1
2022-12-16T10:43:10.005Z,-1.1
2022-12-16T10:44:22.419Z,-1.1
2022-12-16T10:45:45.231Z,-1
2022-12-16T10:46:57.331Z,-1.1
2022-12-16T10:48:09.672Z,-1.1
2022-12-16T10:49:21.837Z,-1
2022-12-16T10:50:34.025Z,-0.9
2022-12-16T10:51:46.155Z,-1
2022-12-16T10:52:58.469Z,-0.9
2022-12-16T10:54:16.372Z,-0.9
2022-12-16T10:55:37.077Z,-0.9
2022-12-16T10:56:59.565Z,-0.7
2022-12-16T10:58:16.824Z,-0.7
2022-12-16T10:59:34.163Z,-0.9
2022-12-16T11:00:46.395Z,-0.7
2022-12-16T11:01:58.691Z,-0.6
2022-12-16T11:03:21.229Z,-0.6
2022-12-16T11:04:35.787Z,-0.5
2022-12-16T11:05:48.009Z,-0.4
2022-12-16T11:07:01.658Z,-0.4
2022-12-16T11:08:13.971Z,-0.3
2022-12-16T11:09:26.156Z,-0.3
2022-12-16T11:10:38.420Z,-0.4
2022-12-16T11:11:50.664Z,-0.5
2022-12-16T11:13:13.313Z,-0.4
2022-12-16T11:14:30.787Z,-0.4
2022-12-16T11:15:43.070Z,-0.4
2022-12-16T11:16:55.923Z,-0.5
2022-12-16T11:18:13.607Z,-0.5
2022-12-16T11:19:25.743Z,-0.4
2022-12-16T11:20:38.107Z,-0.4
2022-12-16T11:21:50.231Z,-0.4
2022-12-16T11:23:02.392Z,-0.1
2022-12-16T11:24:22.745Z,0
2022-12-16T11:25:35.612Z,0
2022-12-16T11:26:45.628Z,-0.1
2022-12-16T11:28:05.539Z,0
2022-12-16T11:29:17.635Z,-0.1
2022-12-16T11:30:29.914Z,-0.1
2022-12-16T11:31:42.269Z,-0.2
2022-12-16T11:33:02.547Z,-0.2
2022-12-16T11:34:22.896Z,-0.4
2022-12-16T11:35:35.262Z,-0.3
2022-12-16T11:36:52.939Z,-0.2
2022-12-16T11:38:05.526Z,-0.3
2022-12-16T11:39:22.919Z,-0.3
2022-12-16T11:40:36.661Z,-0.3
2022-12-16T11:41:48.815Z,-0.2
2022-12-16T11:43:06.477Z,-0.1
2022-12-16T11:44:13.335Z,-0.2
2022-12-16T11:45:25.438Z,-0.3
2022-12-16T11:46:37.646Z,-0.4
2022-12-16T11:47:50.031Z,-0.4
2022-12-16T11:49:02.138Z,-0.5
2022-12-16T11:50:17.015Z,-0.5
2022-12-16T11:51:29.065Z,-0.5
2022-12-16T11:52:41.230Z,-0.6
2022-12-16T11:53:50.915Z,-0.5
2022-12-16T11:55:03.074Z,-0.4
2022-12-16T11:56:23.621Z,-0.3
2022-12-16T11:57:35.723Z,-0.2
2022-12-16T11:58:50.756Z,-0.2
2022-12-16T12:00:02.854Z,-0.2
2022-12-16T12:01:15.503Z,-0.4
2022-12-16T12:02:27.644Z,-0.4
2022-12-16T12:03:50.126Z,-0.5
2022-12-16T12:05:02.345Z,-0.6
2022-12-16T12:06:14.646Z,-0.6
2022-12-16T12:07:26.883Z,-0.5
2022-12-16T12:08:47.448Z,-0.6
2022-12-16T12:10:07.898Z,-0.5
2022-12-16T12:11:25.175Z,-0.5
2022-12-16T12:12:40.357Z,-0.6
2022-12-16T12:13:53.030Z,-0.5
2022-12-16T12:15:15.050Z,-0.4
2022-12-16T12:16:37.964Z,-0.4
2022-12-16T12:17:55.616Z,-0.3
2022-12-16T12:19:15.246Z,-0.3
2022-12-16T12:20:32.811Z,-0.2
2022-12-16T12:21:50.854Z,-0.2
2022-12-16T12:23:05.963Z,-0.4
2022-12-16T12:24:18.028Z,-0.3
2022-12-16T12:25:35.367Z,-0.2
2022-12-16T12:26:52.770Z,-0.2
2022-12-16T12:28:09.982Z,-0.2
2022-12-16T12:29:27.301Z,-0.5
2022-12-16T12:30:47.976Z,-0.6
2022-12-16T12:32:05.990Z,-0.6
2022-12-16T12:33:24.422Z,-0.5
2022-12-16T12:34:44.190Z,-0.4
2022-12-16T12:36:06.579Z,-0.4
2022-12-16T12:37:24.763Z,-0.5
2022-12-16T12:38:42.099Z,-0.4
2022-12-16T12:40:02.985Z,-0.3
2022-12-16T12:41:20.151Z,-0.2
2022-12-16T12:42:32.314Z,-0.2
2022-12-16T12:43:53.347Z,-0.3
2022-12-16T12:45:16.018Z,-0.4
2022-12-16T12:46:33.463Z,-0.4
2022-12-16T12:47:51.650Z,-0.3
2022-12-16T12:49:14.994Z,-0.4
2022-12-16T12:50:29.939Z,-0.4
2022-12-16T12:51:47.246Z,-0.4
2022-12-16T12:53:07.775Z,-0.5
2022-12-16T12:54:28.791Z,-0.6
2022-12-16T12:55:47.770Z,-0.5
2022-12-16T12:57:00.086Z,-0.5
2022-12-16T12:58:12.450Z,-0.7
2022-12-16T12:59:26.078Z,-0.7
2022-12-16T13:00:46.631Z,-0.6
2022-12-16T13:01:58.794Z,-0.5
2022-12-16T13:03:10.997Z,-0.5
2022-12-16T13:04:26.085Z,-0.5
2022-12-16T13:05:38.358Z,-0.4
2022-12-16T13:06:51.533Z,-0.5
2022-12-16T13:08:03.811Z,-0.4
2022-12-16T13:09:21.068Z,-0.3
2022-12-16T13:10:34.018Z,-0.4
2022-12-16T13:11:46.456Z,-0.4
2022-12-16T13:13:08.957Z,-0.5
2022-12-16T13:14:21.033Z,-0.6
2022-12-16T13:15:36.563Z,-0.6
2022-12-16T13:16:49.190Z,-0.5
2022-12-16T13:18:01.291Z,-0.5
2022-12-16T13:19:13.618Z,-0.5
2022-12-16T13:20:33.830Z,-0.5
2022-12-16T13:21:46.075Z,-0.5
2022-12-16T13:22:58.336Z,-0.5
2022-12-16T13:24:10.623Z,-0.5
2022-12-16T13:25:24.185Z,-0.4
2022-12-16T13:26:40.000Z,-0.5
2022-12-16T13:27:52.374Z,-0.5
2022-12-16T13:29:05.401Z,-0.5
2022-12-16T13:30:28.169Z,-0.6
2022-12-16T13:31:40.935Z,-0.7
2022-12-16T13:33:00.949Z,-0.7
2022-12-16T13:34:23.842Z,-0.7
2022-12-16T13:35:36.077Z,-0.7
2022-12-16T13:36:58.480Z,-0.6
2022-12-16T13:38:10.693Z,-0.6
2022-12-16T13:39:25.125Z,-0.8
2022-12-16T13:40:37.197Z,-0.8
2022-12-16T13:41:57.465Z,-0.7
2022-12-16T13:43:09.953Z,-0.7
2022-12-16T13:44:32.751Z,-0.7
2022-12-16T13:45:45.043Z,-0.7
2022-12-16T13:47:00.177Z,-0.7
2022-12-16T13:48:12.373Z,-0.7
2022-12-16T13:49:29.618Z,-0.7
2022-12-16T13:50:49.597Z,-0.7
2022-12-16T13:52:01.797Z,-0.9
2022-12-16T13:53:13.941Z,-0.9
2022-12-16T13:54:26.905Z,-1
2022-12-16T13:55:44.755Z,-1
2022-12-16T13:56:59.741Z,-1.2
2022-12-16T13:58:12.068Z,-1.2
2022-12-16T13:59:32.336Z,-1.2
2022-12-16T14:00:44.533Z,-1.2
2022-12-16T14:01:59.370Z,-1.1
2022-12-16T14:03:22.236Z,-1.1
2022-12-16T14:04:42.711Z,-1.1
2022-12-16T14:05:54.865Z,-1.1
2022-12-16T14:07:07.433Z,-1.1
2022-12-16T14:08:19.677Z,-1.1
2022-12-16T14:09:31.906Z,-1.1
2022-12-16T14:10:46.773Z,-1.1
2022-12-16T14:12:01.981Z,-1.1
2022-12-16T14:13:22.308Z,-1.2
2022-12-16T14:14:43.643Z,-1.1
2022-12-16T14:15:55.972Z,-1.1
2022-12-16T14:17:16.597Z,-1.1
2022-12-16T14:18:31.876Z,-1.1
2022-12-16T14:19:49.596Z,-1.1
2022-12-16T14:21:10.390Z,-1.1
2022-12-16T14:22:22.997Z,-1
2022-12-16T14:23:56.203Z,-1
2022-12-16T14:24:57.583Z,-1.1
2022-12-16T14:26:17.925Z,-1.1
2022-12-16T14:27:30.267Z,-1
2022-12-16T14:28:43.014Z,-1.1
2022-12-16T14:30:03.080Z,-1
2022-12-16T14:31:21.029Z,-1
2022-12-16T14:32:38.245Z,-1
2022-12-16T14:33:50.500Z,-1.1
2022-12-16T14:35:03.894Z,-1.1
2022-12-16T14:36:16.614Z,-1.1
2022-12-16T14:37:29.130Z,-1.1
2022-12-16T14:38:41.349Z,-1.1
2022-12-16T14:39:53.627Z,-1.2
2022-12-16T14:41:05.994Z,-1.2
2022-12-16T14:42:18.562Z,-1.2
2022-12-16T14:43:30.986Z,-1.2
2022-12-16T14:44:42.966Z,-1.2
2022-12-16T14:45:55.238Z,-1.2
2022-12-16T14:47:07.423Z,-1.2
2022-12-16T14:48:20.233Z,-1.2
2022-12-16T14:49:32.731Z,-1.2
2022-12-16T14:50:45.025Z,-1.2
2022-12-16T14:51:57.190Z,-1.2
2022-12-16T14:53:14.633Z,-1.2
2022-12-16T14:54:26.749Z,-1.3
2022-12-16T14:55:47.460Z,-1.3
2022-12-16T14:56:59.849Z,-1.3
2022-12-16T14:58:14.807Z,-1.4
2022-12-16T14:59:27.441Z,-1.5
2022-12-16T15:00:39.989Z,-1.5
2022-12-16T15:01:52.364Z,-1.6
2022-12-16T15:03:14.915Z,-1.6
2022-12-16T15:04:32.107Z,-1.5
2022-12-16T15:05:44.294Z,-1.6
2022-12-16T15:06:56.345Z,-1.6
2022-12-16T15:08:08.722Z,-1.5
2022-12-16T15:09:21.249Z,-1.6
2022-12-16T15:10:38.552Z,-1.6
2022-12-16T15:11:50.829Z,-1.6
2022-12-16T15:13:03.020Z,-1.7
2022-12-16T15:14:19.330Z,-1.8
2022-12-16T15:15:31.466Z,-1.8
2022-12-16T15:16:46.843Z,-1.7
2022-12-16T15:17:58.998Z,-1.7
2022-12-16T15:19:12.313Z,-2
2022-12-16T15:20:24.436Z,-2
2022-12-16T15:21:36.584Z,-2
2022-12-16T15:22:48.809Z,-2
2022-12-16T15:24:01.050Z,-2.1
2022-12-16T15:25:13.252Z,-2
2022-12-16T15:26:28.471Z,-1.9
2022-12-16T15:27:40.790Z,-1.9
2022-12-16T15:28:58.329Z,-1.9
2022-12-16T15:30:08.837Z,-1.8
2022-12-16T15:31:31.741Z,-1.8
2022-12-16T15:32:43.872Z,-1.7
2022-12-16T15:33:56.143Z,-1.7
2022-12-16T15:35:18.985Z,-1.6
2022-12-16T15:36:36.358Z,-1.6
2022-12-16T15:37:48.540Z,-1.6
2022-12-16T15:39:01.521Z,-1.5
2022-12-16T15:40:14.012Z,-1.5
2022-12-16T15:41:30.009Z,-1.4
2022-12-16T15:42:42.441Z,-1.4
2022-12-16T15:43:57.554Z,-1.4
2022-12-16T15:45:06.855Z,-1.5
2022-12-16T15:46:19.229Z,-1.6
2022-12-16T15:47:31.289Z,-1.6
2022-12-16T15:48:44.405Z,-1.5
2022-12-16T15:50:00.713Z,-1.6
2022-12-16T15:51:08.973Z,-1.6
2022-12-16T15:52:29.221Z,-1.6
2022-12-16T15:53:47.868Z,-1.6
2022-12-16T15:55:04.948Z,-1.6
2022-12-16T15:56:25.209Z,-1.6
2022-12-16T15:57:37.362Z,-1.7
2022-12-16T15:58:57.652Z,-1.6
2022-12-16T16:00:17.741Z,-1.6
2022-12-16T16:01:33.047Z,-1.6
2022-12-16T16:02:45.393Z,-1.6
2022-12-16T16:03:57.645Z,-1.6
2022-12-16T16:05:21.199Z,-1.6
2022-12-16T16:06:33.905Z,-1.6
2022-12-16T16:07:49.237Z,-1.6
2022-12-16T16:09:01.561Z,-1.7
2022-12-16T16:10:18.865Z,-1.6
2022-12-16T16:11:30.904Z,-1.7
2022-12-16T16:12:43.438Z,-1.7
2022-12-16T16:14:00.694Z,-1.7
2022-12-16T16:15:08.685Z,-1.7